createdAt,value
2022-11-03T00:01:45.261Z,10.40
2022-11-03T00:04:14.498Z,10.40
2022-11-03T00:06:42.603Z,10.50
2022-11-03T00:09:12.406Z,10.50
2022-11-03T00:11:41.717Z,10.50
2022-11-03T00:14:10.125Z,10.40
2022-11-03T00:16:37.964Z,10.40
2022-11-03T00:19:05.610Z,10.50
2022-11-03T00:21:32.768Z,10.50
2022-11-03T00:24:01.307Z,10.50
2022-11-03T00:26:29.931Z,10.50
2022-11-03T00:29:01.834Z,10.50
2022-11-03T00:31:31.336Z,10.50
2022-11-03T00:33:59.652Z,10.50
2022-11-03T00:36:28.801Z,10.50
2022-11-03T00:38:56.237Z,10.60
2022-11-03T00:41:24.218Z,10.50
2022-11-03T00:43:52.117Z,10.50
2022-11-03T00:46:21.448Z,10.60
2022-11-03T00:48:48.844Z,10.60
2022-11-03T00:51:20.941Z,10.50
2022-11-03T00:53:52.981Z,10.50
2022-11-03T00:56:22.355Z,10.40
2022-11-03T00:58:51.224Z,10.40
2022-11-03T01:01:20.023Z,10.30
2022-11-03T01:04:07.883Z,10.30
2022-11-03T01:06:51.199Z,10.20
2022-11-03T01:09:29.707Z,10.10
2022-11-03T01:12:11.563Z,10.00
2022-11-03T01:14:38.509Z,9.90
2022-11-03T01:17:16.563Z,9.80
2022-11-03T01:19:43.724Z,9.80
2022-11-03T01:22:11.550Z,9.90
2022-11-03T01:24:41.485Z,9.80
2022-11-03T01:27:10.031Z,9.70
2022-11-03T01:29:37.149Z,9.70
2022-11-03T01:32:04.445Z,9.60
2022-11-03T01:34:31.761Z,9.70
2022-11-03T01:36:58.694Z,9.80
2022-11-03T01:39:25.580Z,9.80
2022-11-03T01:41:53.355Z,9.90
2022-11-03T01:44:28.804Z,9.90
2022-11-03T01:47:27.994Z,9.90
2022-11-03T01:50:08.140Z,9.90
2022-11-03T01:52:43.065Z,9.80
2022-11-03T01:55:32.354Z,9.80
2022-11-03T01:58:03.992Z,9.80
2022-11-03T02:00:30.861Z,9.80
2022-11-03T02:02:58.077Z,9.80
2022-11-03T02:05:26.262Z,9.80
2022-11-03T02:07:56.983Z,9.80
2022-11-03T02:10:25.151Z,9.80
2022-11-03T02:12:52.465Z,9.80
2022-11-03T02:15:21.730Z,9.70
2022-11-03T02:17:52.035Z,9.60
2022-11-03T02:20:22.814Z,9.60
2022-11-03T02:23:17.186Z,9.60
2022-11-03T02:25:54.051Z,9.70
2022-11-03T02:28:24.758Z,9.60
2022-11-03T02:31:22.240Z,9.50
2022-11-03T02:34:16.333Z,9.50
2022-11-03T02:36:46.730Z,9.50
2022-11-03T02:39:21.033Z,9.50
2022-11-03T02:41:50.196Z,9.50
2022-11-03T02:44:19.477Z,9.60
2022-11-03T02:46:50.519Z,9.60
2022-11-03T02:49:17.526Z,9.60
2022-11-03T02:51:44.363Z,9.60
2022-11-03T02:54:23.021Z,9.60
2022-11-03T02:57:01.272Z,9.50
2022-11-03T02:59:34.101Z,9.60
2022-11-03T03:02:13.488Z,9.60
2022-11-03T03:04:52.254Z,9.60
2022-11-03T03:07:34.095Z,9.60
2022-11-03T03:10:07.684Z,9.70
2022-11-03T03:12:37.661Z,9.70
2022-11-03T03:15:07.585Z,9.60
2022-11-03T03:18:03.097Z,9.60
2022-11-03T03:20:52.983Z,9.60
2022-11-03T03:23:24.252Z,9.60
2022-11-03T03:25:54.235Z,9.60
2022-11-03T03:28:30.146Z,9.60
2022-11-03T03:31:00.474Z,9.70
2022-11-03T03:36:03.117Z,9.80
2022-11-03T03:38:39.317Z,9.70
2022-11-03T03:41:11.015Z,9.60
2022-11-03T03:43:38.461Z,9.60
2022-11-03T03:46:10.351Z,9.70
2022-11-03T03:48:37.583Z,9.80
2022-11-03T03:51:06.554Z,9.80
2022-11-03T03:53:35.851Z,9.80
2022-11-03T03:56:06.970Z,9.70
2022-11-03T03:58:36.893Z,9.80
2022-11-03T04:01:03.978Z,9.90
2022-11-03T04:03:30.882Z,9.90
2022-11-03T04:05:57.742Z,9.80
2022-11-03T04:08:25.835Z,9.90
2022-11-03T04:11:11.419Z,9.80
2022-11-03T04:13:57.059Z,9.80
2022-11-03T04:16:42.302Z,9.90
2022-11-03T04:19:30.215Z,9.90
2022-11-03T04:22:15.995Z,9.90
2022-11-03T04:24:51.421Z,9.80
2022-11-03T04:27:33.702Z,9.70
2022-11-03T04:30:09.001Z,9.70
2022-11-03T04:32:37.112Z,9.60
2022-11-03T04:35:30.224Z,9.60
2022-11-03T04:38:02.160Z,9.60
2022-11-03T04:40:29.220Z,9.60
2022-11-03T04:42:56.388Z,9.60
2022-11-03T04:45:31.937Z,9.60
2022-11-03T04:48:01.689Z,9.50
2022-11-03T04:50:28.685Z,9.50
2022-11-03T04:52:57.632Z,9.50
2022-11-03T04:55:26.439Z,9.50
2022-11-03T04:58:00.268Z,9.60
2022-11-03T05:00:27.131Z,9.50
2022-11-03T05:02:56.226Z,9.60
2022-11-03T05:05:26.024Z,9.60
2022-11-03T05:07:55.388Z,9.70
2022-11-03T05:10:25.940Z,9.70
2022-11-03T05:12:54.744Z,9.70
2022-11-03T05:15:37.222Z,9.60
2022-11-03T05:18:27.218Z,9.60
2022-11-03T05:20:58.994Z,9.60
2022-11-03T05:23:27.982Z,9.60
2022-11-03T05:25:57.639Z,9.60
2022-11-03T05:28:28.289Z,9.50
2022-11-03T05:30:55.813Z,9.50
2022-11-03T05:33:35.611Z,9.60
2022-11-03T05:36:14.245Z,9.60
2022-11-03T05:38:41.194Z,9.50
2022-11-03T05:41:23.904Z,9.50
2022-11-03T05:44:03.145Z,9.60
2022-11-03T05:46:33.658Z,9.50
2022-11-03T05:49:02.642Z,9.60
2022-11-03T05:51:34.232Z,9.70
2022-11-03T05:54:04.674Z,9.60
2022-11-03T05:56:33.091Z,9.70
2022-11-03T05:59:01.753Z,9.80
2022-11-03T06:01:35.552Z,9.90
2022-11-03T06:04:28.704Z,10.10
2022-11-03T06:07:25.994Z,10.10
2022-11-03T06:09:53.718Z,10.20
2022-11-03T06:12:22.439Z,10.20
2022-11-03T06:14:49.764Z,10.10
2022-11-03T06:17:27.654Z,10.10
2022-11-03T06:19:58.274Z,10.00
2022-11-03T06:22:29.253Z,9.90
2022-11-03T06:25:08.239Z,9.90
2022-11-03T06:27:35.448Z,9.90
2022-11-03T06:30:25.895Z,9.90
2022-11-03T06:32:55.434Z,9.90
2022-11-03T06:35:22.335Z,9.80
2022-11-03T06:37:50.161Z,9.80
2022-11-03T06:40:17.062Z,9.80
2022-11-03T06:42:43.942Z,9.80
2022-11-03T06:45:24.519Z,9.90
2022-11-03T06:47:52.588Z,9.90
2022-11-03T06:50:25.006Z,9.90
2022-11-03T06:52:52.719Z,9.90
2022-11-03T06:55:22.821Z,10.00
2022-11-03T06:57:57.550Z,10.00
2022-11-03T07:00:34.836Z,10.00
2022-11-03T07:03:30.714Z,10.10
2022-11-03T07:06:03.399Z,10.20
2022-11-03T07:08:35.632Z,10.20
2022-11-03T07:11:14.419Z,10.20
2022-11-03T07:13:42.464Z,10.30
2022-11-03T07:16:18.671Z,10.30
2022-11-03T07:18:47.705Z,10.30
2022-11-03T07:21:36.253Z,10.40
2022-11-03T07:24:44.369Z,10.40
2022-11-03T07:27:20.004Z,10.40
2022-11-03T07:29:48.471Z,10.50
2022-11-03T07:32:25.078Z,10.50
2022-11-03T07:35:04.676Z,10.50
2022-11-03T07:37:31.675Z,10.60
2022-11-03T07:39:58.937Z,10.60
2022-11-03T07:42:27.328Z,10.60
2022-11-03T07:44:59.834Z,10.70
2022-11-03T07:47:28.879Z,10.70
2022-11-03T07:49:56.494Z,10.70
2022-11-03T07:52:25.814Z,10.80
2022-11-03T07:54:56.042Z,10.70
2022-11-03T07:57:28.216Z,10.80
2022-11-03T08:00:03.975Z,10.80
2022-11-03T08:02:51.261Z,10.80
2022-11-03T08:07:49.994Z,10.90
2022-11-03T08:10:16.976Z,10.90
2022-11-03T08:12:43.798Z,11.00
2022-11-03T08:15:11.643Z,10.90
2022-11-03T08:17:38.465Z,10.90
2022-11-03T08:20:05.736Z,11.00
2022-11-03T08:22:32.575Z,11.10
2022-11-03T08:24:59.442Z,11.20
2022-11-03T08:27:27.622Z,11.40
2022-11-03T08:29:54.497Z,11.40
2022-11-03T08:32:21.315Z,11.50
2022-11-03T08:34:48.226Z,11.50
2022-11-03T08:37:15.065Z,11.60
2022-11-03T08:39:41.946Z,11.70
2022-11-03T08:42:08.781Z,11.70
2022-11-03T08:44:35.587Z,11.80
2022-11-03T08:47:02.485Z,11.90
2022-11-03T08:49:29.661Z,12.00
2022-11-03T08:51:56.555Z,12.10
2022-11-03T08:54:23.380Z,12.30
2022-11-03T08:56:50.339Z,12.30
2022-11-03T08:59:18.224Z,12.30
2022-11-03T09:01:45.194Z,12.40
2022-11-03T09:04:12.158Z,12.50
2022-11-03T09:06:39.163Z,12.60
2022-11-03T09:11:53.126Z,12.80
2022-11-03T09:14:20.025Z,12.90
2022-11-03T09:16:47.008Z,13.00
2022-11-03T09:19:13.832Z,13.00
2022-11-03T09:21:40.705Z,13.00
2022-11-03T09:24:07.858Z,12.90
2022-11-03T09:26:34.841Z,12.80
2022-11-03T09:29:01.694Z,12.80
2022-11-03T09:31:29.290Z,12.80
2022-11-03T09:33:56.559Z,12.70
2022-11-03T09:36:23.431Z,12.60
2022-11-03T09:38:50.837Z,12.60
2022-11-03T09:41:27.590Z,12.70
2022-11-03T09:44:02.280Z,12.90
2022-11-03T09:46:30.378Z,13.00
2022-11-03T09:48:58.552Z,13.10
2022-11-03T09:51:27.600Z,13.10
2022-11-03T09:53:57.609Z,13.20
2022-11-03T09:56:25.961Z,13.20
2022-11-03T09:58:54.506Z,13.30
2022-11-03T10:01:21.923Z,13.30
2022-11-03T10:03:48.922Z,13.40
2022-11-03T10:06:17.638Z,13.50
2022-11-03T10:08:47.289Z,13.60
2022-11-03T10:11:15.063Z,13.70
2022-11-03T10:13:48.963Z,13.70
2022-11-03T10:16:20.053Z,13.70
2022-11-03T10:18:47.209Z,13.70
2022-11-03T10:21:25.896Z,13.70
2022-11-03T10:23:52.822Z,13.80
2022-11-03T10:26:20.710Z,13.80
2022-11-03T10:29:06.046Z,13.80
2022-11-03T10:31:40.772Z,13.80
2022-11-03T10:34:43.179Z,13.90
2022-11-03T10:37:26.692Z,13.90
2022-11-03T10:39:55.524Z,13.90
2022-11-03T10:42:33.586Z,14.00
2022-11-03T10:45:19.479Z,14.00
2022-11-03T10:48:01.204Z,14.00
2022-11-03T10:50:28.349Z,14.00
2022-11-03T10:52:55.556Z,13.90
2022-11-03T10:55:25.405Z,14.00
2022-11-03T10:57:56.345Z,13.90
2022-11-03T11:00:24.283Z,13.90
2022-11-03T11:02:58.937Z,13.90
2022-11-03T11:05:26.589Z,13.90
2022-11-03T11:07:54.894Z,13.90
2022-11-03T11:10:25.086Z,13.80
2022-11-03T11:13:13.903Z,13.80
2022-11-03T11:15:46.152Z,13.80
2022-11-03T11:18:31.022Z,13.70
2022-11-03T11:20:59.979Z,13.60
2022-11-03T11:23:29.989Z,13.50
2022-11-03T11:26:08.812Z,13.60
2022-11-03T11:28:46.372Z,13.60
2022-11-03T11:31:32.792Z,13.80
2022-11-03T11:34:18.288Z,13.70
2022-11-03T11:37:10.834Z,13.70
2022-11-03T11:39:44.160Z,13.60
2022-11-03T11:42:18.773Z,13.60
2022-11-03T11:44:55.013Z,13.60
2022-11-03T11:47:32.528Z,13.50
2022-11-03T11:50:11.578Z,13.40
2022-11-03T11:52:49.766Z,13.30
2022-11-03T11:55:19.025Z,13.20
2022-11-03T11:57:46.610Z,13.10
2022-11-03T12:00:28.410Z,13.10
2022-11-03T12:02:56.280Z,13.10
2022-11-03T12:05:30.659Z,13.10
2022-11-03T12:07:57.636Z,13.00
2022-11-03T12:10:31.425Z,13.00
2022-11-03T12:13:00.044Z,13.10
2022-11-03T12:15:55.407Z,13.00
2022-11-03T12:18:40.844Z,13.00
2022-11-03T12:21:33.988Z,13.10
2022-11-03T12:24:00.853Z,13.10
2022-11-03T12:26:27.649Z,13.10
2022-11-03T12:28:54.502Z,13.10
2022-11-03T12:31:21.707Z,13.20
2022-11-03T12:33:48.536Z,13.30
2022-11-03T12:36:15.403Z,13.30
2022-11-03T12:38:42.487Z,13.20
2022-11-03T12:41:21.551Z,13.30
2022-11-03T12:43:50.417Z,13.30
2022-11-03T12:46:18.902Z,13.20
2022-11-03T12:48:47.490Z,13.30
2022-11-03T12:51:16.309Z,13.40
2022-11-03T12:53:43.934Z,13.30
2022-11-03T12:56:11.913Z,13.40
2022-11-03T12:58:39.373Z,13.40
2022-11-03T13:01:07.028Z,13.30
2022-11-03T13:03:35.007Z,13.30
2022-11-03T13:06:04.712Z,13.30
2022-11-03T13:08:32.222Z,13.40
2022-11-03T13:10:59.581Z,13.40
2022-11-03T13:13:27.074Z,13.50
2022-11-03T13:15:54.247Z,13.50
2022-11-03T13:18:22.434Z,13.50
2022-11-03T13:20:49.351Z,13.40
2022-11-03T13:23:18.851Z,13.40
2022-11-03T13:25:48.940Z,13.50
2022-11-03T13:28:15.808Z,13.60
2022-11-03T13:30:42.610Z,13.90
2022-11-03T13:33:09.955Z,14.50
2022-11-03T13:35:37.125Z,14.90
2022-11-03T13:38:04.076Z,15.00
2022-11-03T13:43:17.822Z,14.80
2022-11-03T13:45:44.675Z,14.60
2022-11-03T13:51:00.182Z,14.40
2022-11-03T13:56:20.876Z,14.20
2022-11-03T14:01:36.634Z,14.00
2022-11-03T14:06:50.978Z,13.80
2022-11-03T14:09:17.892Z,13.80
2022-11-03T14:12:03.227Z,13.70
2022-11-03T14:14:30.073Z,13.70
2022-11-03T14:16:57.061Z,13.70
2022-11-03T14:19:29.421Z,13.60
2022-11-03T14:22:02.423Z,13.60
2022-11-03T14:24:29.215Z,13.60
2022-11-03T14:26:56.075Z,13.60
2022-11-03T14:29:23.013Z,13.60
2022-11-03T14:31:49.975Z,13.50
2022-11-03T14:34:16.872Z,13.50
2022-11-03T14:36:44.017Z,13.50
2022-11-03T14:39:10.900Z,13.50
2022-11-03T14:41:56.546Z,13.50
2022-11-03T14:44:23.912Z,13.50
2022-11-03T14:46:50.801Z,13.40
2022-11-03T14:49:17.732Z,13.40
2022-11-03T14:51:44.686Z,13.30
2022-11-03T14:54:11.497Z,13.30
2022-11-03T14:56:38.357Z,13.20
2022-11-03T14:59:05.233Z,13.10
2022-11-03T15:01:32.233Z,13.10
2022-11-03T15:03:59.207Z,13.10
2022-11-03T15:06:26.046Z,13.00
2022-11-03T15:08:56.402Z,13.00
2022-11-03T15:11:23.593Z,13.00
2022-11-03T15:13:52.623Z,12.90
2022-11-03T15:16:19.751Z,12.90
2022-11-03T15:18:46.713Z,12.80
2022-11-03T15:21:13.844Z,12.80
2022-11-03T15:26:27.913Z,12.80
2022-11-03T15:28:54.838Z,12.80
2022-11-03T15:31:23.643Z,12.80
2022-11-03T15:33:50.505Z,12.80
2022-11-03T15:36:17.497Z,12.80
2022-11-03T15:38:44.423Z,12.80
2022-11-03T15:41:17.033Z,12.70
2022-11-03T15:43:45.893Z,12.80
2022-11-03T15:46:14.101Z,12.80
2022-11-03T15:48:41.242Z,12.90
2022-11-03T15:51:08.311Z,12.80
2022-11-03T15:53:35.218Z,12.90
2022-11-03T15:56:02.746Z,12.80
2022-11-03T15:58:33.109Z,12.80
2022-11-03T16:01:01.838Z,12.80
2022-11-03T16:03:28.963Z,12.80
2022-11-03T16:05:55.904Z,12.80
2022-11-03T16:08:22.778Z,12.90
2022-11-03T16:10:54.683Z,12.90
2022-11-03T16:13:24.711Z,12.90
2022-11-03T16:15:53.149Z,12.90
2022-11-03T16:18:20.170Z,12.80
2022-11-03T16:20:47.034Z,12.90
2022-11-03T16:23:13.922Z,12.90
2022-11-03T16:25:41.150Z,12.90
2022-11-03T16:28:08.190Z,12.90
2022-11-03T16:30:35.491Z,12.80
2022-11-03T16:33:02.490Z,12.80
2022-11-03T16:35:29.772Z,12.80
2022-11-03T16:37:56.820Z,12.90
2022-11-03T16:40:23.799Z,12.80
2022-11-03T16:42:50.670Z,12.80
2022-11-03T16:45:23.460Z,12.80
2022-11-03T16:47:51.125Z,12.80
2022-11-03T16:50:19.047Z,12.80
2022-11-03T16:52:47.481Z,12.80
2022-11-03T16:55:15.503Z,12.70
2022-11-03T16:57:42.893Z,12.70
2022-11-03T17:00:18.481Z,12.80
2022-11-03T17:02:46.457Z,12.80
2022-11-03T17:05:15.541Z,12.80
2022-11-03T17:07:42.815Z,12.70
2022-11-03T17:10:10.189Z,12.80
2022-11-03T17:12:37.380Z,12.80
2022-11-03T17:15:06.034Z,12.80
2022-11-03T17:17:33.115Z,12.80
2022-11-03T17:20:00.068Z,12.80
2022-11-03T17:22:27.291Z,12.80
2022-11-03T17:24:54.363Z,12.80
2022-11-03T17:27:26.548Z,12.80
2022-11-03T17:29:59.550Z,12.80
2022-11-03T17:32:37.045Z,12.80
2022-11-03T17:35:05.026Z,12.80
2022-11-03T17:37:32.039Z,12.80
2022-11-03T17:39:58.889Z,12.80
2022-11-03T17:42:26.335Z,12.90
2022-11-03T17:44:55.596Z,12.90
2022-11-03T17:47:23.334Z,12.80
2022-11-03T17:49:50.520Z,12.80
2022-11-03T17:52:28.322Z,12.70
2022-11-03T17:54:58.533Z,12.70
2022-11-03T17:57:26.440Z,12.60
2022-11-03T17:59:55.149Z,12.60
2022-11-03T18:02:24.996Z,12.60
2022-11-03T18:05:16.861Z,12.60
2022-11-03T18:07:47.306Z,12.50
2022-11-03T18:10:14.411Z,12.50
2022-11-03T18:13:04.010Z,12.50
2022-11-03T18:15:32.592Z,12.50
2022-11-03T18:18:00.466Z,12.50
2022-11-03T18:20:29.492Z,12.60
2022-11-03T18:23:18.706Z,12.60
2022-11-03T18:25:46.244Z,12.60
2022-11-03T18:28:13.451Z,12.50
2022-11-03T18:30:41.798Z,12.40
2022-11-03T18:33:26.852Z,12.30
2022-11-03T18:35:54.437Z,12.10
2022-11-03T18:38:23.769Z,12.00
2022-11-03T18:40:51.438Z,11.90
2022-11-03T18:43:25.663Z,11.90
2022-11-03T18:45:52.925Z,11.80
2022-11-03T18:48:20.175Z,11.70
2022-11-03T18:50:57.312Z,11.70
2022-11-03T18:53:26.135Z,11.60
2022-11-03T18:55:57.993Z,11.60
2022-11-03T18:58:25.815Z,11.40
2022-11-03T19:00:53.712Z,11.40
2022-11-03T19:03:23.214Z,11.30
2022-11-03T19:05:51.721Z,11.30
2022-11-03T19:08:26.621Z,11.30
2022-11-03T19:10:55.527Z,11.20
2022-11-03T19:13:28.583Z,11.20
2022-11-03T19:15:57.662Z,11.20
2022-11-03T19:18:27.011Z,11.20
2022-11-03T19:20:53.850Z,11.20
2022-11-03T19:23:20.710Z,11.20
2022-11-03T19:25:49.918Z,11.10
2022-11-03T19:28:20.496Z,11.10
2022-11-03T19:30:47.977Z,11.00
2022-11-03T19:33:21.973Z,11.00
2022-11-03T19:35:49.609Z,10.90
2022-11-03T19:38:18.813Z,10.90
2022-11-03T19:41:04.946Z,10.90
2022-11-03T19:43:34.769Z,10.80
2022-11-03T19:46:02.323Z,10.70
2022-11-03T19:48:32.381Z,10.70
2022-11-03T19:50:59.550Z,10.80
2022-11-03T19:53:29.177Z,10.90
2022-11-03T19:55:56.891Z,10.90
2022-11-03T19:58:26.744Z,10.90
2022-11-03T20:00:54.337Z,10.90
2022-11-03T20:03:22.340Z,10.90
2022-11-03T20:05:53.404Z,10.90
2022-11-03T20:08:23.748Z,10.90
2022-11-03T20:10:51.253Z,10.90
2022-11-03T20:13:23.641Z,10.90
2022-11-03T20:15:51.975Z,10.90
2022-11-03T20:18:21.614Z,10.90
2022-11-03T20:20:48.931Z,10.90
2022-11-03T20:23:31.154Z,10.90
2022-11-03T20:25:58.546Z,10.90
2022-11-03T20:28:28.461Z,10.80
2022-11-03T20:30:57.103Z,10.80
2022-11-03T20:33:25.181Z,10.90
2022-11-03T20:35:54.494Z,10.90
2022-11-03T20:38:22.900Z,10.80
2022-11-03T20:40:55.683Z,10.80
2022-11-03T20:43:32.969Z,10.90
2022-11-03T20:46:00.265Z,10.90
2022-11-03T20:48:27.634Z,10.90
2022-11-03T20:50:54.873Z,10.90
2022-11-03T20:53:23.660Z,10.90
2022-11-03T20:55:51.983Z,10.90
2022-11-03T20:58:19.046Z,10.80
2022-11-03T21:00:47.931Z,10.80
2022-11-03T21:03:57.646Z,10.80
2022-11-03T21:06:17.723Z,10.80
2022-11-03T21:08:46.216Z,10.80
2022-11-03T21:11:25.260Z,10.70
2022-11-03T21:14:04.905Z,10.70
2022-11-03T21:16:50.541Z,10.70
2022-11-03T21:19:37.166Z,10.70
2022-11-03T21:22:50.308Z,10.70
2022-11-03T21:25:16.830Z,10.70
2022-11-03T21:27:43.697Z,10.70
2022-11-03T21:30:12.119Z,10.70
2022-11-03T21:32:39.000Z,10.60
2022-11-03T21:35:07.017Z,10.60
2022-11-03T21:37:34.051Z,10.60
2022-11-03T21:40:00.867Z,10.60
2022-11-03T21:42:46.497Z,10.60
2022-11-03T21:45:14.267Z,10.60
2022-11-03T21:48:01.076Z,10.50
2022-11-03T21:50:27.902Z,10.60
2022-11-03T21:52:54.758Z,10.60
2022-11-03T21:55:21.673Z,10.60
2022-11-03T21:57:48.546Z,10.60
2022-11-03T22:00:16.094Z,10.60
2022-11-03T22:02:43.340Z,10.60
2022-11-03T22:05:11.149Z,10.60
2022-11-03T22:07:38.720Z,10.60
2022-11-03T22:10:06.348Z,10.60
2022-11-03T22:12:33.272Z,10.60
2022-11-03T22:15:18.671Z,10.70
2022-11-03T22:17:45.671Z,10.60
2022-11-03T22:20:31.004Z,10.70
2022-11-03T22:23:19.200Z,10.70
2022-11-03T22:26:05.809Z,10.80
2022-11-03T22:28:32.704Z,10.80
2022-11-03T22:31:21.385Z,10.80
2022-11-03T22:34:06.850Z,10.80
2022-11-03T22:36:33.695Z,10.80
2022-11-03T22:39:18.986Z,10.80
2022-11-03T22:42:06.611Z,10.80
2022-11-03T22:44:52.177Z,10.80
2022-11-03T22:47:19.172Z,10.80
2022-11-03T22:49:46.062Z,10.80
2022-11-03T22:52:12.940Z,10.80
2022-11-03T22:54:39.748Z,10.80
2022-11-03T22:57:11.259Z,10.80
2022-11-03T22:59:38.152Z,10.80
2022-11-03T23:02:05.107Z,10.80
2022-11-03T23:04:32.018Z,10.80
2022-11-03T23:06:58.879Z,10.90
2022-11-03T23:09:25.672Z,10.80
2022-11-03T23:11:52.541Z,10.80
2022-11-03T23:14:20.942Z,11.00
2022-11-03T23:16:47.870Z,11.10
2022-11-03T23:19:34.774Z,11.20
2022-11-03T23:22:01.917Z,11.30
2022-11-03T23:24:47.665Z,11.40
2022-11-03T23:27:14.564Z,11.40
2022-11-03T23:29:41.388Z,11.50
2022-11-03T23:32:08.538Z,11.50
2022-11-03T23:34:35.588Z,11.50
2022-11-03T23:37:03.046Z,11.50
2022-11-03T23:39:30.035Z,11.40
2022-11-03T23:41:56.960Z,11.30
2022-11-03T23:44:23.888Z,11.20
2022-11-03T23:47:09.233Z,11.20
2022-11-03T23:49:36.045Z,11.10
2022-11-03T23:52:02.985Z,11.10
2022-11-03T23:54:29.939Z,11.10
2022-11-03T23:57:15.594Z,11.10
2022-11-03T23:59:42.535Z,11.00
